Time;durP1;ratioP1;P1;durP2;ratioP2;P2;SDS_P1;SDS_P2;PMS_P1;PMS_P2;Temp;Humidity;BMP_temperature;BMP_pressure;BME280_temperature;BME280_humidity;BME280_pressure;Samples;Min_cycle;Max_cycle;Signal;HPM_P1;HPM_P2
2022/04/19 00:00:19;;;;;;;5.28;2.67;;;;;;;6.68;74.92;100625.63;675159;29;1170;-78
2022/04/19 00:00:42;;;;;;;4.97;3.00;;;;;;;6.73;74.24;100639.50;677181;29;1551;-78
2022/04/19 00:01:05;;;;;;;5.15;2.75;;;;;;;6.68;74.31;100630.81;679781;29;1461;-78
2022/04/19 00:01:25;;;;;;;4.63;2.70;;;;;;;6.65;73.75;100621.25;683096;28;4290;-78
2022/04/19 00:01:47;;;;;;;4.55;2.80;;;;;;;6.62;73.85;100631.63;682381;28;1296;-78
2022/04/19 00:02:08;;;;;;;4.57;2.50;;;;;;;6.61;73.92;100632.47;677761;29;1534;-78
2022/04/19 00:02:28;;;;;;;5.27;2.60;;;;;;;6.54;74.31;100633.25;680032;28;1412;-78
2022/04/19 00:02:48;;;;;;;5.55;2.80;;;;;;;6.54;74.48;100626.31;677822;29;1376;-78
2022/04/19 00:03:11;;;;;;;4.43;2.60;;;;;;;6.51;74.05;100634.09;679014;29;1230;-79
2022/04/19 00:03:32;;;;;;;4.93;2.70;;;;;;;6.47;74.10;100627.97;676280;29;1220;-78
2022/04/19 00:03:52;;;;;;;5.10;2.60;;;;;;;6.49;75.49;100630.59;673446;29;1166;-77
2022/04/19 00:04:12;;;;;;;5.22;2.50;;;;;;;6.48;75.23;100623.69;675208;29;1005;-78
2022/04/19 00:04:33;;;;;;;5.07;2.73;;;;;;;6.48;74.22;100627.13;671928;29;4407;-78
2022/04/19 00:04:53;;;;;;;5.38;2.95;;;;;;;6.50;77.27;100624.56;675364;29;1485;-78
2022/04/19 00:05:14;;;;;;;4.63;2.50;;;;;;;6.52;76.52;100629.75;674298;29;1596;-77
2022/04/19 00:05:36;;;;;;;4.78;2.63;;;;;;;6.47;76.49;100630.56;673756;29;1015;-78
2022/04/19 00:05:56;;;;;;;5.03;2.63;;;;;;;6.48;74.82;100634.94;673535;29;1652;-78
2022/04/19 00:06:16;;;;;;;5.30;2.77;;;;;;;6.51;75.58;100625.41;676675;29;1570;-78
2022/04/19 00:06:37;;;;;;;5.50;2.60;;;;;;;6.48;75.38;100624.53;674647;29;968;-78
2022/04/19 00:06:57;;;;;;;5.25;2.67;;;;;;;6.48;76.38;100637.53;674639;29;1284;-78
2022/04/19 00:07:21;;;;;;;4.80;2.57;;;;;;;6.41;77.33;100634.81;675966;29;4397;-78
2022/04/19 00:07:42;;;;;;;5.15;2.83;;;;;;;6.39;76.54;100636.53;677609;29;1006;-78
2022/04/19 00:08:04;;;;;;;5.43;2.57;;;;;;;6.33;76.36;100620.88;675970;29;1498;-78
2022/04/19 00:08:24;;;;;;;4.88;2.70;;;;;;;6.28;77.15;100631.22;675680;29;1211;-78
2022/04/19 00:08:45;;;;;;;5.10;2.70;;;;;;;6.26;75.88;100627.75;676015;29;1242;-78
2022/04/19 00:09:05;;;;;;;4.78;2.65;;;;;;;6.29;76.51;100628.63;673217;29;1525;-78
2022/04/19 00:09:26;;;;;;;5.17;2.70;;;;;;;6.30;76.00;100630.38;679272;29;1448;-78
2022/04/19 00:09:46;;;;;;;5.00;2.60;;;;;;;6.30;76.31;100634.72;675760;29;1199;-78
2022/04/19 00:10:08;;;;;;;4.55;2.63;;;;;;;6.28;76.00;100626.88;675024;29;1370;-77
2022/04/19 00:10:29;;;;;;;5.53;2.60;;;;;;;6.27;75.21;100629.47;674951;29;4497;-78
2022/04/19 00:10:49;;;;;;;4.57;2.33;;;;;;;6.33;76.27;100633.84;675488;29;1234;-78
2022/04/19 00:11:10;;;;;;;4.60;2.55;;;;;;;6.29;76.46;100633.81;673822;29;1471;-78
2022/04/19 00:11:30;;;;;;;4.87;2.70;;;;;;;6.29;75.66;100630.38;680462;28;1143;-78
2022/04/19 00:11:51;;;;;;;4.55;2.53;;;;;;;6.27;74.77;100632.06;678382;29;1171;-77
2022/04/19 00:12:12;;;;;;;4.43;2.50;;;;;;;6.36;74.23;100629.59;676972;29;1543;-77
2022/04/19 00:12:32;;;;;;;4.47;2.43;;;;;;;6.48;74.18;100637.53;674179;29;936;-78
2022/04/19 00:12:53;;;;;;;4.45;2.60;;;;;;;6.59;73.25;100626.38;677184;29;1145;-78
2022/04/19 00:13:16;;;;;;;4.27;2.40;;;;;;;6.64;73.36;100635.09;675478;29;4357;-78
2022/04/19 00:13:36;;;;;;;5.28;2.53;;;;;;;6.57;72.82;100633.28;677561;29;1463;-78
2022/04/19 00:13:57;;;;;;;5.03;2.57;;;;;;;6.50;73.87;100639.28;678536;29;1075;-78
2022/04/19 00:14:17;;;;;;;4.47;2.38;;;;;;;6.45;73.34;100632.28;680960;28;1698;-77
2022/04/19 00:14:38;;;;;;;4.07;2.30;;;;;;;6.44;73.04;100627.94;682168;28;1419;-78
2022/04/19 00:14:58;;;;;;;4.35;2.45;;;;;;;6.45;72.85;100627.09;679472;29;1204;-78
2022/04/19 00:15:19;;;;;;;4.33;2.40;;;;;;;6.46;73.06;100628.81;680512;28;1363;-78
2022/04/19 00:15:39;;;;;;;4.05;2.30;;;;;;;6.48;73.50;100628.88;677976;29;1744;-77
2022/04/19 00:16:00;;;;;;;4.28;2.50;;;;;;;6.42;74.28;100634.84;677445;29;1822;-78
2022/04/19 00:16:20;;;;;;;5.23;2.70;;;;;;;6.41;74.60;100630.53;674856;29;4336;-78
2022/04/19 00:16:41;;;;;;;5.45;2.55;;;;;;;6.38;74.65;100621.81;672005;29;1255;-77
2022/04/19 00:17:01;;;;;;;4.50;2.43;;;;;;;6.30;75.60;100632.13;672995;29;1400;-78
2022/04/19 00:17:22;;;;;;;4.78;2.70;;;;;;;6.25;75.36;100626.84;672742;29;1393;-78
2022/04/19 00:17:42;;;;;;;5.10;2.70;;;;;;;6.20;75.74;100627.66;673627;29;1175;-78
2022/04/19 00:18:04;;;;;;;5.27;2.70;;;;;;;6.22;77.15;100621.63;672125;29;1832;-78
2022/04/19 00:18:25;;;;;;;5.03;2.72;;;;;;;6.22;76.25;100631.16;677710;29;1424;-78
2022/04/19 00:18:45;;;;;;;5.28;2.58;;;;;;;6.17;76.22;100633.66;676797;29;1239;-78
2022/04/19 00:19:06;;;;;;;4.90;2.23;;;;;;;6.19;75.59;100620.72;679931;28;1314;-78
2022/04/19 00:19:27;;;;;;;4.55;2.47;;;;;;;6.19;75.44;100624.19;682957;28;4506;-78
2022/04/19 00:19:47;;;;;;;4.90;2.70;;;;;;;6.20;74.45;100635.44;681696;29;1257;-78
2022/04/19 00:20:09;;;;;;;5.10;2.60;;;;;;;6.21;74.79;100625.06;683869;28;1379;-78
2022/04/19 00:20:30;;;;;;;5.57;2.72;;;;;;;6.19;75.00;100623.31;680306;28;1637;-78
2022/04/19 00:20:51;;;;;;;4.60;2.20;;;;;;;6.12;76.42;100631.03;678869;29;1344;-78
2022/04/19 00:21:11;;;;;;;4.50;2.50;;;;;;;6.09;76.81;100625.81;677613;29;1489;-78
2022/04/19 00:21:32;;;;;;;4.32;2.47;;;;;;;6.04;76.64;100636.97;678539;29;1099;-77
2022/04/19 00:21:52;;;;;;;5.03;2.70;;;;;;;5.98;78.24;100627.34;677139;29;1197;-78
2022/04/19 00:22:13;;;;;;;5.28;2.60;;;;;;;5.95;78.33;100625.59;679950;29;1429;-78
2022/04/19 00:22:43;;;;;;;5.00;2.70;;;;;;;5.94;77.93;100625.53;674544;29;4746;-78
2022/04/19 00:23:05;;;;;;;4.25;2.58;;;;;;;5.93;77.30;100627.28;672957;29;1469;-78
2022/04/19 00:23:25;;;;;;;4.10;2.38;;;;;;;5.97;76.08;100621.31;674408;29;1407;-78
2022/04/19 00:23:46;;;;;;;4.30;2.43;;;;;;;6.02;76.91;100625.69;675654;29;1014;-77
2022/04/19 00:24:06;;;;;;;5.15;2.50;;;;;;;6.03;77.80;100624.84;679119;28;1292;-78
2022/04/19 00:24:28;;;;;;;5.33;2.50;;;;;;;5.94;78.33;100621.25;676378;29;1162;-78
2022/04/19 00:24:48;;;;;;;4.40;2.40;;;;;;;5.90;77.20;100623.78;679883;29;1356;-78
2022/04/19 00:25:09;;;;;;;4.00;2.30;;;;;;;5.86;76.69;100629.78;673483;29;1432;-77
2022/04/19 00:25:29;;;;;;;4.82;2.55;;;;;;;5.91;75.91;100623.81;673691;29;4555;-77
2022/04/19 00:25:52;;;;;;;4.72;2.70;;;;;;;5.95;77.92;100633.38;674557;29;1951;-78
2022/04/19 00:26:13;;;;;;;4.28;2.50;;;;;;;5.98;78.72;100627.34;676453;29;1120;-78
2022/04/19 00:26:33;;;;;;;5.23;2.80;;;;;;;6.00;78.21;100623.06;670375;29;1247;-78
2022/04/19 00:26:54;;;;;;;4.50;2.57;;;;;;;6.01;78.15;100626.53;673918;29;1174;-78
2022/04/19 00:27:15;;;;;;;3.90;2.40;;;;;;;6.07;77.06;100622.31;675173;29;1488;-78
2022/04/19 00:27:35;;;;;;;3.97;2.30;;;;;;;6.04;76.58;100617.06;675855;29;1263;-77
2022/04/19 00:27:56;;;;;;;4.00;2.30;;;;;;;5.95;77.90;100623.00;674392;29;1546;-78
2022/04/19 00:28:16;;;;;;;4.53;2.33;;;;;;;5.95;76.80;100629.88;677999;29;4471;-78
2022/04/19 00:28:37;;;;;;;4.15;2.42;;;;;;;5.89;76.95;100620.31;677597;29;1356;-78
2022/04/19 00:28:57;;;;;;;4.00;2.47;;;;;;;5.88;77.53;100625.47;675363;29;1275;-80
2022/04/19 00:29:17;;;;;;;4.28;2.65;;;;;;;5.88;78.10;100628.06;674944;29;810;-78
2022/04/19 00:29:41;;;;;;;4.80;2.40;;;;;;;5.88;78.25;100633.25;674225;29;1432;-78
2022/04/19 00:30:05;;;;;;;4.95;2.55;;;;;;;5.84;77.99;100629.72;672004;29;1416;-78
2022/04/19 00:30:29;;;;;;;4.38;2.40;;;;;;;5.85;77.91;100622.84;677200;29;5119;-78
2022/04/19 00:30:49;;;;;;;4.20;2.50;;;;;;;5.82;77.91;100622.81;675594;29;1771;-78
2022/04/19 00:31:10;;;;;;;4.13;2.60;;;;;;;5.77;77.95;100631.41;680663;28;1245;-78
2022/04/19 00:31:30;;;;;;;4.27;2.40;;;;;;;5.78;78.01;100621.88;679306;29;4384;-78
2022/04/19 00:31:51;;;;;;;5.13;2.53;;;;;;;5.75;78.12;100620.09;676092;29;1385;-78
2022/04/19 00:32:11;;;;;;;4.65;2.40;;;;;;;5.76;77.27;100627.06;678297;29;1410;-78
2022/04/19 00:32:32;;;;;;;3.92;2.38;;;;;;;5.79;77.85;100632.28;677001;29;1253;-78
2022/04/19 00:32:52;;;;;;;4.37;2.37;;;;;;;5.85;78.17;100630.63;676741;29;1308;-78
2022/04/19 00:33:13;;;;;;;4.32;2.50;;;;;;;5.81;78.56;100619.31;674467;29;1275;-77
2022/04/19 00:33:33;;;;;;;4.00;2.50;;;;;;;5.83;77.68;100622.81;677562;29;1488;-78
2022/04/19 00:33:54;;;;;;;4.80;2.60;;;;;;;5.84;77.79;100623.69;676461;29;1344;-77
2022/04/19 00:34:16;;;;;;;4.33;2.67;;;;;;;5.84;76.84;100615.91;675115;29;4368;-78
2022/04/19 00:34:36;;;;;;;4.10;2.45;;;;;;;5.86;77.76;100622.00;674870;29;1739;-77
2022/04/19 00:34:59;;;;;;;4.40;2.50;;;;;;;5.83;78.93;100628.00;675182;29;900;-78
2022/04/19 00:35:19;;;;;;;4.13;2.50;;;;;;;5.80;78.38;100622.75;679901;29;1474;-78
2022/04/19 00:35:40;;;;;;;4.53;2.42;;;;;;;5.77;77.97;100623.63;675368;29;1865;-77
2022/04/19 00:36:01;;;;;;;4.30;2.40;;;;;;;5.79;77.96;100618.44;670116;29;1535;-79
2022/04/19 00:36:24;;;;;;;3.90;2.40;;;;;;;5.79;77.57;100629.69;670302;29;985;-77
2022/04/19 00:36:44;;;;;;;4.95;2.50;;;;;;;5.83;77.80;100621.94;674140;29;1488;-78
2022/04/19 00:37:06;;;;;;;4.53;2.50;;;;;;;5.78;77.17;100620.16;672840;29;1174;-77
2022/04/19 00:37:26;;;;;;;4.20;2.40;;;;;;;5.70;78.61;100621.75;672455;29;4363;-77
2022/04/19 00:37:49;;;;;;;4.88;2.65;;;;;;;5.63;78.04;100617.34;673287;29;1228;-78
2022/04/19 00:38:09;;;;;;;4.38;2.50;;;;;;;5.68;77.36;100615.69;672137;29;1674;-78
2022/04/19 00:38:30;;;;;;;4.13;2.33;;;;;;;5.72;77.76;100616.59;676254;29;1444;-78
2022/04/19 00:38:50;;;;;;;3.90;2.40;;;;;;;5.75;79.26;100614.06;674984;29;1561;-78
2022/04/19 00:39:11;;;;;;;4.50;2.47;;;;;;;5.66;78.81;100614.78;677463;28;1253;-78
2022/04/19 00:39:31;;;;;;;4.30;2.40;;;;;;;5.64;78.32;100616.50;677825;29;1445;-78
2022/04/19 00:39:53;;;;;;;4.30;2.50;;;;;;;5.63;78.32;100618.22;677092;29;1379;-78
2022/04/19 00:40:14;;;;;;;4.28;2.40;;;;;;;5.62;76.77;100613.88;678567;29;1142;-78
2022/04/19 00:40:34;;;;;;;5.60;2.70;;;;;;;5.69;77.41;100612.25;677165;29;6030;-78
2022/04/19 00:40:55;;;;;;;5.90;2.78;;;;;;;5.76;77.34;100620.97;674898;29;1300;-77
2022/04/19 00:41:17;;;;;;;5.53;2.63;;;;;;;5.76;77.21;100616.66;675318;29;1472;-78
2022/04/19 00:41:37;;;;;;;4.80;2.50;;;;;;;5.85;76.15;100621.09;674830;29;1825;-77
2022/04/19 00:41:57;;;;;;;4.20;2.30;;;;;;;5.91;76.87;100616.03;676842;29;1537;-78
2022/04/19 00:42:18;;;;;;;4.03;2.47;;;;;;;5.88;78.27;100615.94;678138;29;1339;-78
2022/04/19 00:42:38;;;;;;;5.20;2.67;;;;;;;5.80;78.30;100617.56;675859;29;939;-77
2022/04/19 00:42:59;;;;;;;5.17;2.40;;;;;;;5.71;77.78;100615.72;677556;29;1487;-77
2022/04/19 00:43:21;;;;;;;4.57;2.60;;;;;;;5.68;77.77;100620.03;672291;29;4457;-78
2022/04/19 00:43:41;;;;;;;4.53;2.60;;;;;;;5.68;77.49;100607.91;674227;29;1440;-78
2022/04/19 00:44:02;;;;;;;4.43;2.50;;;;;;;5.71;77.00;100613.13;675314;29;1267;-78
2022/04/19 00:44:23;;;;;;;4.38;2.60;;;;;;;5.72;79.28;100614.00;675875;29;1506;-78
2022/04/19 00:44:44;;;;;;;4.47;2.55;;;;;;;5.68;78.92;100614.81;674663;29;1446;-78
2022/04/19 00:45:06;;;;;;;4.80;2.58;;;;;;;5.65;79.06;100610.47;675033;29;1646;-77
2022/04/19 00:45:26;;;;;;;5.50;2.50;;;;;;;5.64;78.60;100611.31;672152;29;1483;-77
2022/04/19 00:45:49;;;;;;;5.13;2.80;;;;;;;5.60;79.50;100615.56;674143;29;1899;-77
2022/04/19 00:46:10;;;;;;;5.57;2.67;;;;;;;5.68;78.22;100607.06;671445;29;1437;-78
2022/04/19 00:46:30;;;;;;;4.30;2.40;;;;;;;5.73;79.29;100608.84;672636;29;4527;-78
2022/04/19 00:46:53;;;;;;;4.55;2.50;;;;;;;5.69;79.45;100603.59;675041;29;1450;-78
2022/04/19 00:47:15;;;;;;;4.30;2.25;;;;;;;5.66;79.31;100608.72;674369;29;1388;-77
2022/04/19 00:47:38;;;;;;;4.60;2.45;;;;;;;5.63;78.44;100609.56;670347;29;1466;-77
2022/04/19 00:48:02;;;;;;;4.47;2.88;;;;;;;5.63;77.94;100609.56;672911;29;1563;-78
2022/04/19 00:48:24;;;;;;;4.85;2.65;;;;;;;5.65;80.22;100614.75;676839;29;1529;-77
2022/04/19 00:48:46;;;;;;;4.68;2.38;;;;;;;5.60;79.73;100606.94;673877;29;1559;-78
2022/04/19 00:49:06;;;;;;;5.95;3.17;;;;;;;5.57;79.13;100619.84;680398;28;1478;-78
2022/04/19 00:49:28;;;;;;;4.57;2.60;;;;;;;5.58;79.42;100611.19;676957;29;4354;-78
2022/04/19 00:49:49;;;;;;;4.47;2.40;;;;;;;5.63;79.78;100609.56;675602;29;1573;-78
2022/04/19 00:50:10;;;;;;;4.65;2.40;;;;;;;5.62;79.83;100610.41;678178;29;1361;-77
2022/04/19 00:50:33;;;;;;;5.45;2.58;;;;;;;5.53;80.16;100613.72;673680;29;1389;-78
2022/04/19 00:50:53;;;;;;;4.90;2.63;;;;;;;5.51;78.81;100614.56;675488;29;1307;-78
2022/04/19 00:51:14;;;;;;;5.03;2.63;;;;;;;5.53;78.79;100615.47;671525;29;1230;-77
2022/04/19 00:51:35;;;;;;;4.38;2.50;;;;;;;5.53;80.13;100605.09;674591;29;1392;-78
2022/04/19 00:51:56;;;;;;;4.55;2.40;;;;;;;5.51;79.85;100609.38;672997;29;1396;-77
2022/04/19 00:52:18;;;;;;;5.75;2.72;;;;;;;5.51;79.74;100611.97;675060;29;4299;-78
2022/04/19 00:52:39;;;;;;;7.28;2.67;;;;;;;5.50;78.69;100612.81;676129;29;1495;-78
2022/04/19 00:53:03;;;;;;;5.35;2.58;;;;;;;5.56;78.82;100623.28;675712;29;1382;-77
2022/04/19 00:53:27;;;;;;;4.65;2.55;;;;;;;5.57;78.51;100622.44;675082;29;1272;-78
2022/04/19 00:53:49;;;;;;;4.40;2.60;;;;;;;5.59;80.17;100612.94;671616;29;1189;-78
2022/04/19 00:54:13;;;;;;;4.05;2.70;;;;;;;5.57;79.78;100619.84;673688;29;1286;-78
2022/04/19 00:54:34;;;;;;;4.07;2.40;;;;;;;5.54;78.74;100620.69;677091;29;1636;-78
2022/04/19 00:54:56;;;;;;;3.97;2.30;;;;;;;5.54;78.99;100617.19;677009;29;1482;-78
2022/04/19 00:55:16;;;;;;;3.85;2.25;;;;;;;5.55;78.59;100617.25;677490;29;4405;-78
2022/04/19 00:55:38;;;;;;;5.75;2.70;;;;;;;5.52;79.82;100611.13;674046;29;1230;-78
2022/04/19 00:55:58;;;;;;;4.55;2.45;;;;;;;5.53;79.51;100620.66;676403;29;1849;-78
2022/04/19 00:56:19;;;;;;;3.75;2.30;;;;;;;5.50;78.67;100611.09;675984;29;1855;-78
2022/04/19 00:56:40;;;;;;;4.33;2.23;;;;;;;5.54;78.08;100607.72;675286;29;1338;-78
2022/04/19 00:57:02;;;;;;;4.88;2.50;;;;;;;5.53;78.98;100615.47;678048;29;1117;-77
2022/04/19 00:57:24;;;;;;;4.68;2.60;;;;;;;5.44;79.93;100613.59;681517;28;1521;-78
2022/04/19 00:57:46;;;;;;;4.20;2.40;;;;;;;5.37;79.96;100617.81;680687;28;1427;-78
2022/04/19 00:58:08;;;;;;;3.92;2.40;;;;;;;5.37;78.95;100614.34;677970;29;1411;-78
2022/04/19 00:58:29;;;;;;;4.78;2.42;;;;;;;5.37;79.82;100612.66;675224;29;4292;-78
2022/04/19 00:58:50;;;;;;;4.90;2.60;;;;;;;5.40;79.06;100610.09;675139;29;1453;-78
2022/04/19 00:59:11;;;;;;;4.30;2.60;;;;;;;5.41;80.30;100614.44;674167;29;1634;-78
2022/04/19 00:59:33;;;;;;;5.07;2.60;;;;;;;5.39;80.63;100616.13;675833;29;2337;-78
2022/04/19 00:59:55;;;;;;;4.65;2.40;;;;;;;5.38;80.10;100616.97;678011;29;1567;-78
2022/04/19 01:00:17;;;;;;;4.75;2.70;;;;;;;5.35;79.69;100618.66;681503;28;1647;-78
2022/04/19 01:00:50;;;;;;;5.38;2.53;;;;;;;5.37;80.81;100611.75;679674;28;1656;-78
2022/04/19 01:01:11;;;;;;;4.18;2.47;;;;;;;5.39;79.13;100603.16;674923;29;1285;-78
2022/04/19 01:01:33;;;;;;;4.75;2.35;;;;;;;5.40;80.50;100607.50;673417;29;5180;-77
2022/04/19 01:01:54;;;;;;;4.78;2.38;;;;;;;5.37;79.88;100607.47;672388;29;1582;-78
2022/04/19 01:02:15;;;;;;;4.50;2.20;;;;;;;5.43;78.53;100607.53;680090;29;1442;-78
2022/04/19 01:02:37;;;;;;;3.55;2.20;;;;;;;5.49;79.66;100605.91;680714;28;1575;-77
2022/04/19 01:02:58;;;;;;;4.50;2.55;;;;;;;5.52;78.94;100603.34;677577;29;1734;-78
2022/04/19 01:03:21;;;;;;;4.40;2.55;;;;;;;5.55;78.77;100616.34;677952;29;1626;-78
2022/04/19 01:03:42;;;;;;;4.43;2.47;;;;;;;5.50;79.62;100611.09;672726;29;1325;-78
2022/04/19 01:04:08;;;;;;;3.88;2.20;;;;;;;5.47;80.17;100608.47;678822;29;1303;-78
2022/04/19 01:04:30;;;;;;;4.40;2.53;;;;;;;5.43;80.28;100611.88;678639;28;4283;-78
2022/04/19 01:04:51;;;;;;;4.72;2.50;;;;;;;5.40;79.27;100610.09;679029;28;1833;-78
2022/04/19 01:05:11;;;;;;;5.20;2.45;;;;;;;5.42;80.48;100604.94;682069;28;1267;-78
2022/04/19 01:05:35;;;;;;;4.88;2.50;;;;;;;5.38;80.17;100609.19;680904;28;1509;-78
2022/04/19 01:05:56;;;;;;;5.00;2.60;;;;;;;5.36;79.73;100603.13;679330;28;1906;-78
2022/04/19 01:06:17;;;;;;;4.93;2.50;;;;;;;5.33;80.86;100617.75;677507;29;1798;-78
2022/04/19 01:06:37;;;;;;;4.78;2.70;;;;;;;5.29;80.09;100612.50;676720;29;1240;-78
2022/04/19 01:06:58;;;;;;;4.00;2.63;;;;;;;5.36;79.18;100607.41;675741;29;1638;-77
2022/04/19 01:07:21;;;;;;;5.43;2.60;;;;;;;5.46;78.98;100610.16;672245;29;4391;-78
2022/04/19 01:07:45;;;;;;;4.68;2.45;;;;;;;5.41;80.11;100603.19;675187;29;1749;-78
2022/04/19 01:08:07;;;;;;;4.03;2.40;;;;;;;5.37;80.46;100606.56;677163;29;1351;-78
2022/04/19 01:08:30;;;;;;;4.25;2.22;;;;;;;5.34;79.00;100601.34;680839;29;1550;-78
2022/04/19 01:08:51;;;;;;;4.40;2.30;;;;;;;5.38;80.00;100611.78;677722;29;1324;-78
2022/04/19 01:09:13;;;;;;;4.40;2.40;;;;;;;5.39;80.08;100604.88;679795;28;1282;-78
2022/04/19 01:09:33;;;;;;;3.92;2.40;;;;;;;5.31;81.33;100607.34;677723;29;1130;-78
2022/04/19 01:09:54;;;;;;;4.65;2.40;;;;;;;5.28;81.16;100602.97;675553;29;1363;-77
2022/04/19 01:10:16;;;;;;;4.45;2.45;;;;;;;5.31;79.51;100602.16;669163;29;4341;-78
2022/04/19 01:10:37;;;;;;;5.47;2.60;;;;;;;5.32;80.79;100606.50;672562;29;1317;-78
2022/04/19 01:13:19;;;;;;;3.92;2.40;;;;;;;5.25;80.30;100602.06;680237;28;1565;-77
2022/04/19 01:13:50;;;;;;;5.68;2.40;;;;;;;5.21;81.46;100605.47;680222;28;5017;-77
2022/04/19 01:14:12;;;;;;;4.45;2.30;;;;;;;5.20;81.11;100598.53;678999;28;1542;-79
2022/04/19 01:14:36;;;;;;;4.38;2.58;;;;;;;5.16;80.00;100601.91;676078;29;1410;-77
2022/04/19 01:14:58;;;;;;;4.20;2.58;;;;;;;5.15;80.32;100605.34;677824;29;1440;-77
2022/04/19 01:15:25;;;;;;;4.85;2.40;;;;;;;5.09;81.05;100604.38;673246;29;1273;-77
2022/04/19 01:16:05;;;;;;;4.53;2.50;;;;;;;5.05;81.54;100602.63;676917;29;1514;-77
2022/04/19 01:16:25;;;;;;;4.68;2.60;;;;;;;5.01;82.44;100605.13;677652;29;4360;-78
2022/04/19 01:16:46;;;;;;;5.90;2.70;;;;;;;4.99;82.08;100605.09;676079;29;1234;-77
2022/04/19 01:17:07;;;;;;;4.80;2.58;;;;;;;5.06;82.06;100600.91;675044;29;1571;-77
2022/04/19 01:17:29;;;;;;;5.60;2.67;;;;;;;5.08;81.98;100609.56;674265;29;1111;-78
2022/04/19 01:17:50;;;;;;;4.57;2.70;;;;;;;5.07;82.18;100603.50;677786;29;1199;-77
2022/04/19 01:18:11;;;;;;;4.90;2.60;;;;;;;5.11;82.30;100610.50;677016;29;1526;-77
2022/04/19 01:18:35;;;;;;;4.45;2.40;;;;;;;5.08;82.35;100612.16;676708;29;1688;-77
2022/04/19 01:19:01;;;;;;;4.47;2.47;;;;;;;5.05;81.47;100605.22;679877;28;1687;-78
2022/04/19 01:19:22;;;;;;;4.90;2.50;;;;;;;5.08;81.97;100614.75;677808;29;4296;-77
2022/04/19 01:19:45;;;;;;;4.88;2.50;;;;;;;5.08;81.97;100605.25;676401;29;1289;-77
2022/04/19 01:20:14;;;;;;;4.63;2.40;;;;;;;5.06;81.11;100603.50;673312;29;1093;-77
2022/04/19 01:20:37;;;;;;;4.32;2.60;;;;;;;5.09;82.08;100608.72;679912;29;1517;-77
2022/04/19 01:20:59;;;;;;;4.47;2.80;;;;;;;5.04;82.73;100606.06;680105;29;1332;-77
2022/04/19 01:21:19;;;;;;;4.47;2.67;;;;;;;5.04;80.78;100613.84;678583;29;1295;-76
2022/04/19 01:21:44;;;;;;;4.00;2.23;;;;;;;5.12;81.39;100608.75;676786;29;1671;-77
2022/04/19 01:22:06;;;;;;;4.03;2.40;;;;;;;5.07;82.69;100600.91;674866;29;1274;-77
2022/04/19 01:22:43;;;;;;;5.30;2.90;;;;;;;4.99;82.53;100604.25;675789;29;5259;-77
2022/04/19 01:23:04;;;;;;;5.03;2.60;;;;;;;5.03;80.91;100599.13;677518;29;1545;-77
2022/04/19 01:23:29;;;;;;;5.05;2.60;;;;;;;5.06;80.78;100593.97;677295;28;1739;-77
2022/04/19 01:23:49;;;;;;;4.78;2.53;;;;;;;5.08;79.80;100599.19;678281;29;1529;-77
2022/04/19 01:24:15;;;;;;;5.38;2.70;;;;;;;5.02;82.09;100599.97;675437;29;1350;-77
2022/04/19 01:24:36;;;;;;;3.88;2.30;;;;;;;5.01;81.87;100597.34;675106;29;1570;-77
2022/04/19 01:24:56;;;;;;;4.63;2.60;;;;;;;5.00;81.07;100596.50;675295;29;1383;-77
2022/04/19 01:25:19;;;;;;;4.75;2.67;;;;;;;5.01;81.24;100597.34;674812;29;4357;-77
2022/04/19 01:25:39;;;;;;;5.07;2.50;;;;;;;5.02;83.53;100594.78;676392;29;1944;-78
2022/04/19 01:26:00;;;;;;;5.15;2.70;;;;;;;5.09;82.61;100594.03;677795;29;1642;-77
2022/04/19 01:26:23;;;;;;;4.30;2.70;;;;;;;5.12;81.78;100595.81;673013;29;1431;-77
2022/04/19 01:26:45;;;;;;;5.55;2.72;;;;;;;5.14;81.33;100598.41;675625;29;1415;-77
2022/04/19 01:27:06;;;;;;;4.75;2.70;;;;;;;5.14;80.76;100595.81;677158;29;1515;-77
2022/04/19 01:27:27;;;;;;;4.63;2.63;;;;;;;5.09;80.82;100596.63;680121;28;1249;-78
2022/04/19 01:27:48;;;;;;;4.00;2.43;;;;;;;5.07;82.12;100607.84;679257;28;1331;-77
2022/04/19 01:28:08;;;;;;;4.05;2.50;;;;;;;5.13;82.10;100596.69;676538;29;1194;-77
2022/04/19 01:28:29;;;;;;;4.17;2.30;;;;;;;5.08;81.44;100600.09;678789;28;4287;-77
2022/04/19 01:28:49;;;;;;;4.13;2.40;;;;;;;5.08;81.25;100606.97;679075;28;1405;-77
2022/04/19 01:29:11;;;;;;;4.40;2.50;;;;;;;5.09;82.16;100595.75;683164;28;1523;-77
2022/04/19 01:29:33;;;;;;;4.22;2.50;;;;;;;5.05;82.61;100597.44;677726;29;1265;-77
2022/04/19 01:30:02;;;;;;;4.38;2.45;;;;;;;5.01;81.83;100597.34;678680;29;1501;-77
2022/04/19 01:30:23;;;;;;;4.25;2.50;;;;;;;5.04;83.35;100595.69;678164;29;4829;-77
2022/04/19 01:30:52;;;;;;;4.10;2.42;;;;;;;5.03;82.04;100596.53;674175;29;1083;-77
2022/04/19 01:31:13;;;;;;;4.65;2.58;;;;;;;5.03;81.59;100595.66;677456;29;1451;-77
2022/04/19 01:31:41;;;;;;;5.85;2.70;;;;;;;5.00;82.08;100599.06;677411;29;5131;-77
2022/04/19 01:32:04;;;;;;;4.50;2.63;;;;;;;4.94;83.53;100597.25;672632;29;1182;-77
2022/04/19 01:32:27;;;;;;;5.00;2.67;;;;;;;4.94;83.31;100597.25;675291;29;1323;-78
2022/04/19 01:32:47;;;;;;;4.72;2.60;;;;;;;4.93;82.86;100602.41;675509;29;1587;-77
2022/04/19 01:33:09;;;;;;;5.20;2.40;;;;;;;4.95;82.82;100592.94;675284;29;1513;-77
2022/04/19 01:33:29;;;;;;;4.93;2.58;;;;;;;4.95;83.48;100596.38;681530;28;1587;-77
2022/04/19 01:33:50;;;;;;;5.67;2.70;;;;;;;4.93;83.56;100594.66;675228;29;1407;-79
2022/04/19 01:34:11;;;;;;;5.70;3.00;;;;;;;4.91;84.07;100593.72;678281;29;1677;-77
2022/04/19 01:34:31;;;;;;;4.38;2.75;;;;;;;4.86;83.72;100598.84;677431;29;4308;-77
2022/04/19 01:35:07;;;;;;;4.45;2.53;;;;;;;4.83;83.75;100597.91;680135;29;1414;-77
2022/04/19 01:35:28;;;;;;;4.47;2.60;;;;;;;4.85;83.57;100596.22;675877;29;1672;-77
2022/04/19 01:35:51;;;;;;;4.32;2.40;;;;;;;4.88;82.54;100596.28;674202;29;1445;-77
2022/04/19 01:36:12;;;;;;;4.10;2.50;;;;;;;4.89;82.41;100590.25;678599;29;1397;-77
2022/04/19 01:36:38;;;;;;;4.90;2.40;;;;;;;4.88;84.13;100596.28;676521;29;1425;-77
2022/04/19 01:36:59;;;;;;;4.97;2.42;;;;;;;4.86;85.18;100596.25;680084;28;1420;-76
2022/04/19 01:37:20;;;;;;;5.50;2.60;;;;;;;4.85;84.82;100594.50;679127;29;4352;-77
2022/04/19 01:37:48;;;;;;;4.32;2.47;;;;;;;4.82;84.43;100599.63;677768;29;1544;-77
2022/04/19 01:38:10;;;;;;;4.78;2.78;;;;;;;4.79;84.48;100594.41;675420;29;1088;-78
2022/04/19 01:38:33;;;;;;;5.05;2.72;;;;;;;4.82;82.77;100591.88;680262;29;1700;-77
2022/04/19 01:38:54;;;;;;;4.47;2.60;;;;;;;4.82;84.40;100597.03;678795;29;1776;-77
2022/04/19 01:39:16;;;;;;;3.80;2.40;;;;;;;4.86;83.84;100592.78;676229;29;1156;-77
2022/04/19 01:40:18;;;;;;;4.15;2.50;;;;;;;4.93;84.50;100597.25;681460;28;4305;-77
2022/04/19 01:40:39;;;;;;;4.85;2.60;;;;;;;4.92;83.97;100595.47;679812;28;1298;-77
2022/04/19 01:41:04;;;;;;;4.47;2.60;;;;;;;4.91;84.21;100602.38;681756;28;1598;-77
2022/04/19 01:41:40;;;;;;;4.50;2.40;;;;;;;4.89;83.77;100587.66;683263;28;1790;-79
2022/04/19 01:42:00;;;;;;;4.90;2.40;;;;;;;4.81;86.08;100595.28;676940;28;1381;-77
2022/04/19 01:42:21;;;;;;;4.40;2.60;;;;;;;4.73;86.48;100592.56;677063;29;1555;-77
2022/04/19 01:42:47;;;;;;;4.95;2.70;;;;;;;4.68;86.28;100589.03;674101;29;1301;-77
2022/04/19 01:43:07;;;;;;;5.28;2.70;;;;;;;4.66;85.36;100595.03;678125;28;1839;-77
2022/04/19 01:43:51;;;;;;;4.03;2.60;;;;;;;4.60;86.06;100595.78;674024;29;5837;-77
2022/04/19 01:44:14;;;;;;;5.00;2.80;;;;;;;4.62;85.02;100596.66;678979;29;1740;-77
2022/04/19 01:44:34;;;;;;;4.65;2.60;;;;;;;4.59;85.14;100599.22;678286;29;1500;-77
2022/04/19 01:44:55;;;;;;;5.15;2.65;;;;;;;4.58;85.86;100597.44;680050;28;1420;-77
2022/04/19 01:45:23;;;;;;;5.10;2.80;;;;;;;4.52;85.96;100594.75;677944;29;1469;-77
2022/04/19 01:45:45;;;;;;;4.43;2.60;;;;;;;4.51;85.76;100590.41;672287;29;1887;-77
2022/04/19 01:46:11;;;;;;;4.38;2.50;;;;;;;4.55;85.10;100602.59;676375;29;1675;-77
2022/04/19 01:46:32;;;;;;;4.33;2.60;;;;;;;4.57;85.51;100587.97;673110;29;4307;-77
2022/04/19 01:46:53;;;;;;;4.55;2.50;;;;;;;4.62;85.42;100588.91;680053;28;1192;-78
2022/04/19 01:47:13;;;;;;;4.38;2.40;;;;;;;4.62;86.32;100588.91;675061;29;1710;-77
2022/04/19 01:47:39;;;;;;;4.75;2.70;;;;;;;4.60;85.92;100582.84;678203;29;1396;-77
2022/04/19 01:48:00;;;;;;;4.53;2.45;;;;;;;4.59;85.33;100592.31;677623;29;1424;-77
2022/04/19 01:48:21;;;;;;;4.78;2.40;;;;;;;4.58;85.29;100590.59;680470;28;1713;-77
2022/04/19 01:48:41;;;;;;;4.73;2.30;;;;;;;4.61;85.19;100587.19;678450;29;1154;-77
2022/04/19 01:49:05;;;;;;;4.65;2.42;;;;;;;4.61;85.48;100589.78;673578;29;1575;-77